Terminal Aerodrome Forecast
Issued by NWS Greer, SC

Home | Current Version | Previous Version | Text Only | Print | Product List | Glossary On
Versions: 1 2 3 4 5 6 7 8 9 10 11 12 13 14 15 16 17 18 19 20 21 22
000
FTUS42 KGSP 281153
TAFCLT
TAF
KCLT 281153Z 2812/2912 08004KT P6SM SCT070
     FM290000 10005KT P6SM VCSH BKN070
     FM290600 06004KT P6SM OVC035 PROB30 2906/2912 4SM -SHRA BR
      OVC015=

USA.gov is the U.S. government's official web portal to all federal, state and local government web resources and services.